• Join FlightAware (Why Join?)
  • Login
  • US Flag 
12:54PM EDT


 

Airport Tracker/Info


-or-


 

Live Flight TrackerFlight Track Log ✈ UPS2876 ✈ 07-Nov-2013 ✈ KSDF - KPHX

Flight Track Log - Related Links

Times and Time Zones

All times are in EST time to prevent confusion due to time zone crossing. See the UPS2876 flight status page for this flight to view local times or setup timezone preferences in your user account.

Time Position Orientation Groundspeed Altitude Reporting Facility
EST Latitude Longitude Course Direction KTS MPH feet Rate Location/Type
04:36PM 38.1910 -85.7510 165° South 159 183 1,500  Level FlightAware
04:37PM 38.2190 -85.7670 336° Northwest 202 232 2,800 2,100 Climbing FlightAware
04:37PM 38.2440 -85.7860 329° Northwest 232 267 3,800 2,220 Climbing FlightAware
04:38PM 38.2700 -85.8080 326° Northwest 253 291 4,900 2,760 Climbing FlightAware
04:38PM 38.2780 -85.8390 288° West 252 290 6,100 3,180 Climbing FlightAware
04:39PM 38.2670 -85.8960 256° West 265 305 8,200 3,120 Climbing FlightAware
04:39PM 38.2350 -85.9260 216° Southwest 275 316 9,900 2,280 Climbing FlightAware
04:40PM 38.1870 -85.9710 216° Southwest 317 365 11,100 2,460 Climbing FlightAware
04:41PM 38.1100 -86.0420 216° Southwest 341 392 14,300 3,180 Climbing FlightAware
04:42PM 38.0690 -86.0800 216° Southwest 348 400 16,100 3,120 Climbing FlightAware
04:43PM 37.9900 -86.1550 217° Southwest 364 419 19,100 3,060 Climbing FlightAware
04:43PM 37.9470 -86.2070 224° Southwest 351 404 20,900 3,060 Climbing FlightAware
04:44PM 37.9290 -86.2470 240° Southwest 340 391 22,100 2,460 Climbing FlightAware
04:44PM 37.9190 -86.2940 255° West 338 389 22,900 2,340 Climbing FlightAware
04:45PM 37.9160 -86.3710 267° West 342 394 24,600 2,280 Climbing FlightAware
04:45PM 37.9130 -86.4500 267° West 353 406 25,900 1,200 Climbing FlightAware
04:46PM 37.9100 -86.5110 266° West 354 407 26,000 60 Climbing FlightAware
04:47PM 37.9050 -86.6180 267° West 351 404 26,000  Level FlightAware
04:47PM 37.9140 -86.6910 279° West 352 405 26,000 420 Level FlightAware
04:48PM 37.9210 -86.7430 280° West 353 406 26,500 1,680 Climbing FlightAware
04:48PM 37.9320 -86.8270 279° West 362 417 27,900 1,980 Climbing FlightAware
04:49PM 37.9390 -86.8940 278° West 366 421 29,000 2,340 Climbing FlightAware
04:49PM 37.9400 -86.9620 271° West 358 412 30,500 2,460 Climbing FlightAware
04:50PM 37.9360 -87.0440 266° West 354 407 31,800 960 Climbing FlightAware
04:51PM 37.9310 -87.1560 267° West 352 405 32,000 60 Climbing FlightAware
04:52PM 37.9230 -87.2640 265° West 351 404 32,000  Level FlightAware
04:53PM 37.9140 -87.3870 265° West 354 407 32,000  Level FlightAware
04:53PM 37.9090 -87.4520 264° West 355 409 32,000 960 Level FlightAware
04:54PM 37.9030 -87.5490 266° West 349 402 33,300 1,260 Climbing FlightAware
04:55PM 37.8970 -87.6350 265° West 338 389 34,000 480 Climbing FlightAware
04:56PM 37.8910 -87.7130 264° West 341 392 34,000  Level FlightAware
04:56PM 37.8870 -87.7770 265° West 346 398 34,000  Level FlightAware
04:57PM 37.8820 -87.8410 264° West 348 400 34,000  Level FlightAware
04:57PM 37.8740 -87.9520 265° West 349 402 34,000  Level FlightAware
04:58PM 37.8650 -88.0680 264° West 349 402 34,000  Level FlightAware
04:59PM 37.8570 -88.1750 265° West 350 403 34,000  Level FlightAware
05:00PM 37.8490 -88.2890 265° West 351 404 34,000  Level FlightAware
05:01PM 37.8390 -88.4200 265° West 352 405 34,000  Level FlightAware
05:02PM 37.8340 -88.4800 264° West 352 405 34,000  Level FlightAware
05:03PM 37.8250 -88.6000 265° West 354 407 34,000  Level FlightAware
05:03PM 37.8200 -88.6660 265° West 354 407 34,000  Level FlightAware
05:04PM 37.8110 -88.7810 264° West 356 410 34,000  Level FlightAware
05:05PM 37.8060 -88.8360 263° West 357 411 34,000  Level FlightAware
05:06PM 37.7960 -88.9640 264° West 358 412 34,000  Level FlightAware
05:06PM 37.7920 -89.0130 264° West 358 412 34,000  Level FlightAware
05:07PM 37.7840 -89.1100 264° West 359 413 34,000  Level FlightAware
05:08PM 37.7770 -89.1930 264° West 360 414 34,000  Level FlightAware
05:08PM 37.7680 -89.2930 264° West 362 417 34,000  Level FlightAware
05:09PM 37.7610 -89.3790 264° West 362 417 34,000  Level FlightAware
05:10PM 37.7560 -89.4390 264° West 362 417 34,000  Level FlightAware
05:10PM 37.7470 -89.5490 264° West 363 418 34,000  Level FlightAware
05:11PM 37.7390 -89.6320 263° West 363 418 34,000  Level FlightAware
05:12PM 37.7300 -89.7370 264° West 361 415 34,000  Level FlightAware
05:13PM 37.7200 -89.8490 264° West 359 413 34,000  Level FlightAware
05:14PM 37.7100 -89.9570 263° West 357 411 34,000  Level FlightAware
05:14PM 37.7010 -90.0570 264° West 357 411 34,000  Level FlightAware
05:15PM 37.6970 -90.1060 264° West 357 411 34,000  Level FlightAware
05:15PM 37.6910 -90.1730 264° West 357 411 34,000  Level FlightAware
05:16PM 37.6800 -90.2880 263° West 358 412 34,000  Level FlightAware
05:17PM 37.6720 -90.3780 264° West 358 412 34,000  Level FlightAware
05:18PM 37.6610 -90.4950 263° West 359 413 34,000  Level FlightAware
05:19PM 37.6530 -90.5810 263° West 359 413 34,000  Level FlightAware
05:20PM 37.6400 -90.7080 263° West 361 415 34,000  Level FlightAware
05:20PM 37.6300 -90.8120 263° West 362 417 34,000  Level FlightAware
05:21PM 37.6270 -90.8500 264° West 362 417 34,000  Level FlightAware
05:22PM 37.6120 -90.9970 263° West 362 417 34,000  Level FlightAware
05:23PM 37.6010 -91.1030 263° West 363 418 34,000  Level FlightAware
05:23PM 37.5970 -91.1470 263° West 363 418 34,000  Level FlightAware
05:24PM 37.5850 -91.2620 263° West 363 418 34,000  Level FlightAware
05:25PM 37.5730 -91.3860 263° West 363 418 34,000  Level FlightAware
05:26PM 37.5650 -91.4650 263° West 364 419 34,000  Level FlightAware
05:26PM 37.5580 -91.5270 262° West 364 419 34,000  Level FlightAware
05:27PM 37.5460 -91.6410 262° West 364 419 34,000  Level FlightAware
05:28PM 37.5360 -91.7420 263° West 365 420 34,000  Level FlightAware
05:29PM 37.5250 -91.8430 262° West 365 420 34,000  Level FlightAware
05:30PM 37.5110 -91.9700 262° West 365 420 34,000  Level FlightAware
05:31PM 37.4990 -92.0820 262° West 365 420 34,000  Level FlightAware
05:31PM 37.4860 -92.1980 262° West 367 422 34,000  Level FlightAware
05:32PM 37.4760 -92.2890 262° West 367 422 34,000  Level FlightAware
05:33PM 37.4700 -92.3430 262° West 367 422 34,000  Level FlightAware
05:34PM 37.4560 -92.4690 262° West 368 423 34,000  Level FlightAware
05:34PM 37.4440 -92.5760 262° West 368 423 34,000  Level FlightAware
05:35PM 37.4380 -92.6290 262° West 368 423 34,000  Level FlightAware
05:36PM 37.4240 -92.7550 262° West 368 423 34,000  Level FlightAware
05:37PM 37.4110 -92.8640 261° West 368 423 34,000  Level FlightAware
05:37PM 37.4010 -92.9490 262° West 369 425 34,000  Level FlightAware
05:38PM 37.3970 -92.9910 263° West 369 425 34,000  Level FlightAware
05:39PM 37.3830 -93.1100 262° West 368 423 34,000  Level FlightAware
05:39PM 37.3740 -93.1810 261° West 369 425 34,000  Level FlightAware
05:40PM 37.3670 -93.2440 262° West 369 425 34,000  Level FlightAware
05:41PM 37.3510 -93.3670 261° West 368 423 34,000  Level FlightAware
05:41PM 37.3450 -93.4130 261° West 369 425 34,000  Level FlightAware
05:42PM 37.3270 -93.5390 260° West 368 423 34,000  Level FlightAware
05:42PM 37.3190 -93.5930 259° West 368 423 34,000  Level FlightAware
05:43PM 37.3050 -93.6890 260° West 369 425 34,000  Level FlightAware
05:44PM 37.2900 -93.7920 260° West 367 422 34,000  Level FlightAware
05:45PM 37.2730 -93.9110 260° West 367 422 34,000  Level FlightAware
05:46PM 37.2560 -94.0210 259° West 366 421 34,000  Level FlightAware
05:47PM 37.2420 -94.1150 259° West 367 422 34,000  Level FlightAware
05:47PM 37.2300 -94.1960 259° West 367 422 34,000  Level FlightAware
05:48PM 37.2150 -94.2950 259° West 368 423 34,000  Level FlightAware
05:49PM 37.1980 -94.4090 259° West 369 425 34,000  Level FlightAware
05:50PM 37.1840 -94.5050 260° West 369 425 34,000  Level FlightAware
05:51PM 37.1680 -94.6060 259° West 369 425 34,000  Level FlightAware
05:51PM 37.1560 -94.6870 259° West 370 426 34,000  Level FlightAware
05:52PM 37.1380 -94.8010 259° West 371 427 34,000  Level FlightAware
05:52PM 37.1310 -94.8430 258° West 371 427 34,000  Level FlightAware
05:53PM 37.1230 -94.9000 260° West 371 427 34,000  Level FlightAware
05:54PM 37.1050 -95.0120 259° West 371 427 34,000  Level FlightAware
05:55PM 37.0900 -95.1060 259° West 372 428 34,000  Level FlightAware
05:55PM 37.0750 -95.2010 259° West 370 426 34,000  Level FlightAware
05:56PM 37.0590 -95.3010 259° West 371 427 34,000  Level FlightAware
05:57PM 37.0410 -95.4170 259° West 371 427 34,000  Level FlightAware
05:58PM 37.0230 -95.5270 258° West 371 427 34,000  Level FlightAware
05:58PM 37.0140 -95.5810 258° West 371 427 34,000  Level FlightAware
05:59PM 36.9940 -95.7060 259° West 371 427 34,000  Level FlightAware
06:00PM 36.9750 -95.8230 259° West 371 427 34,000  Level FlightAware
06:01PM 36.9670 -95.8710 258° West 371 427 34,000  Level FlightAware
06:02PM 36.9460 -95.9970 258° West 372 428 34,000  Level FlightAware
06:02PM 36.9320 -96.0810 258° West 372 428 34,000  Level FlightAware
06:03PM 36.9250 -96.1220 258° West 372 428 34,000  Level FlightAware
06:04PM 36.9030 -96.2530 258° West 372 428 34,000  Level FlightAware
06:04PM 36.8840 -96.3670 258° West 373 429 34,000  Level FlightAware
06:05PM 36.8680 -96.4580 258° West 372 428 34,000  Level FlightAware
06:06PM 36.8560 -96.5300 258° West 372 428 34,000  Level FlightAware
06:07PM 36.8380 -96.6330 258° West 372 428 34,000  Level FlightAware
06:07PM 36.8210 -96.7320 258° West 372 428 34,000  Level FlightAware
06:08PM 36.8050 -96.8240 258° West 371 427 34,000  Level FlightAware
06:09PM 36.7900 -96.9130 258° West 371 427 34,000  Level FlightAware
06:10PM 36.7740 -97.0020 257° West 371 427 34,000  Level FlightAware
06:11PM 36.7530 -97.1240 258° West 371 427 34,000  Level FlightAware
06:11PM 36.7370 -97.2290 259° West 371 427 34,000  Level FlightAware
06:12PM 36.7240 -97.3300 261° West 370 426 34,000  Level FlightAware
06:13PM 36.7130 -97.4100 260° West 370 426 34,000  Level FlightAware
06:14PM 36.6980 -97.5150 260° West 370 426 34,000  Level FlightAware
06:14PM 36.6830 -97.6190 260° West 371 427 34,000  Level FlightAware
06:16PM 36.6640 -97.7560 260° West 371 427 34,000  Level FlightAware
06:16PM 36.6480 -97.8670 260° West 371 427 34,000  Level FlightAware
06:17PM 36.6300 -97.9930 260° West 372 428 34,000  Level FlightAware
06:18PM 36.6150 -98.0990 260° West 373 429 34,000  Level FlightAware
06:19PM 36.6000 -98.2000 260° West 373 429 34,000  Level FlightAware
06:20PM 36.5890 -98.2770 260° West 374 430 34,000  Level FlightAware
06:20PM 36.5800 -98.3370 259° West 374 430 34,000  Level FlightAware
06:21PM 36.5700 -98.4050 260° West 374 430 34,000  Level FlightAware
06:22PM 36.5540 -98.5160 260° West 375 432 34,000  Level FlightAware
06:22PM 36.5470 -98.5650 260° West 376 433 34,000  Level FlightAware
06:23PM 36.5310 -98.6680 259° West 375 432 34,000  Level FlightAware
06:24PM 36.5160 -98.7690 260° West 374 430 34,000  Level FlightAware
06:24PM 36.4980 -98.8900 260° West 375 432 34,000  Level FlightAware
06:25PM 36.4890 -98.9530 260° West 375 432 34,000  Level FlightAware
06:26PM 36.4700 -99.0760 259° West 375 432 34,000  Level FlightAware
06:27PM 36.4590 -99.1470 259° West 376 433 34,000  Level FlightAware
06:27PM 36.4410 -99.2650 259° West 377 434 34,000  Level FlightAware
06:28PM 36.4300 -99.3360 259° West 377 434 34,000  Level FlightAware
06:29PM 36.4080 -99.4760 259° West 379 436 34,000  Level FlightAware
06:30PM 36.3910 -99.5820 259° West 380 437 34,000  Level FlightAware
06:31PM 36.3790 -99.6600 259° West 381 438 34,000  Level FlightAware
06:31PM 36.3680 -99.7260 258° West 381 438 34,000  Level FlightAware
06:32PM 36.3570 -99.7950 259° West 380 437 34,000  Level FlightAware
06:32PM 36.3480 -99.8560 260° West 380 437 34,000  Level FlightAware
06:33PM 36.3320 -99.9850 261° West 380 437 34,000  Level FlightAware
06:34PM 36.3220 -100.0790 263° West 380 437 34,000  Level FlightAware
06:35PM 36.3100 -100.1860 262° West 381 438 34,000  Level FlightAware
06:36PM 36.2970 -100.3070 262° West 381 438 34,000  Level FlightAware
06:36PM 36.2870 -100.4000 262° West 381 438 34,000  Level FlightAware
06:37PM 36.2740 -100.5130 262° West 382 440 34,000  Level FlightAware
06:38PM 36.2620 -100.6190 262° West 382 440 34,000  Level FlightAware
06:39PM 36.2520 -100.7050 262° West 384 442 34,000  Level FlightAware
06:39PM 36.2400 -100.8090 262° West 385 443 34,000  Level FlightAware
06:40PM 36.2310 -100.8890 262° West 386 444 34,000  Level FlightAware
06:41PM 36.2230 -100.9520 261° West 387 445 34,000  Level FlightAware
06:42PM 36.2070 -101.0900 262° West 391 450 34,000  Level FlightAware
06:42PM 36.2010 -101.1430 262° West 391 450 34,000  Level FlightAware
06:43PM 36.1840 -101.2820 261° West 393 452 34,000  Level FlightAware
06:44PM 36.1700 -101.3970 261° West 394 453 34,000  Level FlightAware
06:45PM 36.1560 -101.5180 262° West 395 455 34,000  Level FlightAware
06:46PM 36.1410 -101.6400 261° West 395 455 34,000  Level FlightAware
06:47PM 36.1260 -101.7650 262° West 395 455 34,000  Level FlightAware
06:48PM 36.1090 -101.8960 261° West 395 455 34,000  Level FlightAware
06:48PM 36.0960 -101.9970 261° West 395 455 34,000  Level FlightAware
06:49PM 36.0820 -102.1090 261° West 395 455 34,000  Level FlightAware
06:50PM 36.0660 -102.2340 261° West 396 456 34,000  Level FlightAware
06:51PM 36.0530 -102.3410 261° West 396 456 34,000  Level FlightAware
06:52PM 36.0420 -102.4230 261° West 395 455 34,000  Level FlightAware
06:52PM 36.0280 -102.5300 261° West 397 457 34,000  Level FlightAware
06:53PM 36.0210 -102.5830 261° West 397 457 34,000  Level FlightAware
06:54PM 36.0030 -102.7180 261° West 396 456 34,000  Level FlightAware
06:54PM 35.9950 -102.7800 261° West 396 456 34,000  Level FlightAware
06:55PM 35.9780 -102.9050 260° West 397 457 34,000  Level FlightAware
06:56PM 35.9590 -103.0500 261° West 398 458 34,000  Level FlightAware
06:57PM 35.9430 -103.1640 260° West 399 459 34,000  Level FlightAware
06:58PM 35.9260 -103.2940 261° West 400 460 34,000  Level FlightAware
06:59PM 35.9110 -103.4020 260° West 400 460 34,000  Level FlightAware
07:00PM 35.8960 -103.5090 260° West 400 460 34,000  Level FlightAware
07:00PM 35.8800 -103.6210 260° West 400 460 34,000  Level FlightAware
07:01PM 35.8660 -103.7220 260° West 401 461 34,000  Level FlightAware
07:02PM 35.8500 -103.8340 260° West 401 461 34,000  Level FlightAware
07:02PM 35.8420 -103.8880 260° West 401 461 34,000  Level FlightAware
07:03PM 35.8230 -104.0240 260° West 402 463 34,000  Level FlightAware
07:04PM 35.8060 -104.1420 260° West 403 464 34,000  Level FlightAware
07:05PM 35.7870 -104.2700 260° West 404 465 34,000  Level FlightAware
07:06PM 35.7770 -104.3420 260° West 404 465 34,000  Level FlightAware
07:07PM 35.7550 -104.4880 260° West 404 465 34,000  Level FlightAware
07:08PM 35.7420 -104.5800 260° West 404 465 34,000  Level FlightAware
07:08PM 35.7310 -104.6480 259° West 404 465 34,000  Level FlightAware
07:09PM 35.7120 -104.7790 260° West 405 466 34,000  Level FlightAware
07:10PM 35.7000 -104.8550 259° West 407 468 34,000  Level FlightAware
07:10PM 35.6820 -104.9730 259° West 407 468 34,000  Level FlightAware
07:11PM 35.6630 -105.0960 259° West 407 468 34,000  Level FlightAware
07:12PM 35.6420 -105.2340 259° West 408 470 34,000  Level FlightAware
07:13PM 35.6270 -105.3330 259° West 409 471 34,000  Level FlightAware
07:14PM 35.6170 -105.3970 259° West 409 471 34,000  Level FlightAware
07:14PM 35.6050 -105.4710 259° West 410 472 34,000  Level FlightAware
07:15PM 35.5870 -105.5860 259° West 409 471 34,000  Level FlightAware
07:16PM 35.5700 -105.6960 259° West 409 471 34,000  Level FlightAware
07:17PM 35.5470 -105.8380 259° West 410 472 34,000  Level FlightAware
07:18PM 35.5290 -105.9520 259° West 408 470 34,000  Level FlightAware
07:19PM 35.5070 -106.0830 258° West 407 468 34,000  Level FlightAware
07:19PM 35.4900 -106.1910 259° West 406 467 34,000  Level FlightAware
07:20PM 35.4810 -106.2450 258° West 406 467 34,000  Level FlightAware
07:20PM 35.4650 -106.3440 259° West 405 466 34,000  Level FlightAware
07:22PM 35.4420 -106.4830 259° West 404 465 34,000  Level FlightAware
07:22PM 35.4260 -106.5790 258° West 404 465 34,000  Level FlightAware
07:23PM 35.4080 -106.6850 258° West 403 464 34,000  Level FlightAware
07:24PM 35.3880 -106.8020 258° West 404 465 34,000  Level FlightAware
07:25PM 35.3710 -106.9060 259° West 404 465 34,000  Level FlightAware
07:25PM 35.3520 -107.0150 258° West 405 466 34,000  Level FlightAware
07:26PM 35.3410 -107.0800 258° West 406 467 34,000  Level FlightAware
07:27PM 35.3260 -107.1680 258° West 407 468 34,000  Level FlightAware
07:28PM 35.3040 -107.2940 258° West 409 471 34,000  Level FlightAware
07:28PM 35.2890 -107.3820 258° West 409 471 34,000  Level FlightAware
07:29PM 35.2690 -107.4980 258° West 409 471 34,000  Level FlightAware
07:30PM 35.2570 -107.5630 257° West 409 471 34,000  Level FlightAware
07:31PM 35.2410 -107.6580 258° West 409 471 34,000  Level FlightAware
07:31PM 35.2280 -107.7290 257° West 409 471 34,000  Level FlightAware
07:32PM 35.2170 -107.7950 258° West 409 471 34,000  Level FlightAware
07:33PM 35.2000 -107.8910 258° West 409 471 34,000  Level FlightAware
07:34PM 35.1800 -108.0060 258° West 409 471 34,000  Level FlightAware
07:35PM 35.1600 -108.1220 258° West 409 471 34,000  Level FlightAware
07:35PM 35.1560 -108.1450 258° West 409 471 34,000  Level FlightAware
07:36PM 35.1360 -108.2600 258° West 409 471 34,000  Level FlightAware
07:37PM 35.1200 -108.3530 258° West 409 471 34,000  Level FlightAware
07:37PM 35.1160 -108.3760 258° West 409 471 34,000  Level FlightAware
07:40PM 35.0040 -108.9500 257° West 403 464 34,000  Level FlightAware
07:41PM 34.9800 -109.0820 258° West 404 465 34,000  Level FlightAware
07:42PM 34.9610 -109.1640 254° West 404 465 34,000  Level FlightAware
07:42PM 34.9320 -109.2490 247° West 404 465 34,000  Level FlightAware
07:43PM 34.8860 -109.3750 246° West 404 465 34,000  Level FlightAware
07:44PM 34.8450 -109.4860 246° West 404 465 34,000  Level FlightAware
07:45PM 34.7970 -109.6170 246° West 403 464 34,000  Level FlightAware
07:46PM 34.7770 -109.6690 245° Southwest 404 465 34,000  Level FlightAware
07:46PM 34.7530 -109.7340 246° West 404 465 34,000  Level FlightAware
07:47PM 34.7110 -109.8480 246° West 404 465 34,000  Level FlightAware
07:48PM 34.6920 -109.9000 246° West 405 466 34,000  Level FlightAware
07:48PM 34.6520 -110.0070 246° West 405 466 34,000  Level FlightAware
07:49PM 34.6150 -110.1060 246° West 405 466 34,000  Level FlightAware
07:50PM 34.5750 -110.2130 246° West 405 466 34,000  Level FlightAware
07:51PM 34.5290 -110.3340 245° Southwest 406 467 34,000 -660 Level FlightAware
07:52PM 34.4920 -110.4330 246° West 404 465 32,900 -1,620 Descending FlightAware
07:53PM 34.4530 -110.5350 245° Southwest 393 452 31,400 -1,800 Descending FlightAware
07:53PM 34.4330 -110.5900 246° West 388 447 30,600 -1,740 Descending FlightAware
07:54PM 34.3940 -110.6920 245° Southwest 377 434 29,100 -1,680 Descending FlightAware
07:55PM 34.3690 -110.7570 245° Southwest 384 442 28,200 -1,800 Descending FlightAware
07:55PM 34.3330 -110.8220 236° Southwest 396 456 27,000 -1,980 Descending FlightAware
07:56PM 34.2720 -110.9030 228° Southwest 392 451 25,400 -1,980 Descending FlightAware
07:57PM 34.2140 -110.9770 227° Southwest 378 435 23,800 -1,980 Descending FlightAware
07:58PM 34.1410 -111.0710 227° Southwest 360 414 21,800 -1,920 Descending FlightAware
07:59PM 34.0910 -111.1350 227° Southwest 358 412 20,400 -1,860 Descending FlightAware
07:59PM 34.0380 -111.2020 226° Southwest 353 406 19,000 -1,860 Descending FlightAware
08:00PM 33.9770 -111.2810 227° Southwest 343 395 17,300 -1,860 Descending FlightAware
08:01PM 33.9210 -111.3530 227° Southwest 338 389 15,700 -1,380 Descending FlightAware
08:02PM 33.8710 -111.4230 229° Southwest 306 352 14,900 -1,140 Descending FlightAware
08:02PM 33.8520 -111.4570 236° Southwest 307 353 14,300 -1,620 Descending FlightAware
08:03PM 33.8270 -111.5050 238° Southwest 306 352 13,400 -2,700 Descending FlightAware
08:03PM 33.8004 -111.5565 238° Southwest 300 345 12,500 -1,440 Descending FlightAware ADS-B
08:04PM 33.7840 -111.5880 238° Southwest 298 343 12,000 -1,020 Descending FlightAware
08:05PM 33.7470 -111.6590 238° Southwest 292 336 10,800 -1,620 Descending FlightAware
08:05PM 33.7038 -111.7395 237° Southwest 284 327 9,900 -780 Descending FlightAware ADS-B
08:06PM 33.6950 -111.7550 236° Southwest 284 327 9,900  Level FlightAware
08:06PM 33.6666 -111.8076 237° Southwest 287 330 9,900  Level FlightAware ADS-B
08:07PM 33.6568 -111.8257 237° Southwest 289 333 9,900  Level FlightAware ADS-B
08:07PM 33.6372 -111.8618 237° Southwest 287 330 9,900  Level FlightAware ADS-B
08:07PM 33.6143 -111.9039 237° Southwest 285 328 9,900  Level FlightAware ADS-B
08:08PM 33.6058 -111.9159 230° Southwest 282 325 9,900  Level FlightAware ADS-B
08:08PM 33.5941 -111.9242 211° Southwest 279 321 9,900  Level FlightAware ADS-B
08:08PM 33.5577 -111.9343 193° South 281 323 9,900  Level FlightAware ADS-B
08:09PM 33.5440 -111.9380 193° South 279 321 9,900 -540 Level FlightAware
08:09PM 33.4821 -111.9551 193° South 277 319 9,400 -660 Descending FlightAware ADS-B
08:10PM 33.4710 -111.9580 192° South 277 319 9,300 -720 Descending FlightAware
08:10PM 33.4410 -111.9650 191° South 278 320 8,700 -3,000 Descending FlightAware
08:10PM 33.4034 -111.9954 214° Southwest 280 322 7,800 -3,480 Descending FlightAware ADS-B
08:11PM 33.3912 -112.0091 223° Southwest 276 318 7,200 -1,380 Descending FlightAware ADS-B
08:11PM 33.3671 -112.0376 225° Southwest 268 308 6,900 -600 Descending FlightAware ADS-B
08:11PM 33.3609 -112.0491 237° Southwest 257 296 6,900 -600 Level FlightAware ADS-B
08:11PM 33.3583 -112.0587 252° West 254 292 6,700 -300 Descending FlightAware ADS-B
08:12PM 33.3580 -112.0670 267° West 252 290 6,700 -1,140 Level FlightAware
08:13PM 33.3620 -112.1230 275° West 250 288 5,400 -1,620 Descending FlightAware
08:13PM 33.3640 -112.1640 273° West 221 254 4,800 -1,320 Descending FlightAware
08:14PM 33.3800 -112.1860 311° West 185 213 4,100 -1,500 Descending FlightAware
08:14PM 33.3830 -112.1870 344° North 181 208 4,000 -1,200 Descending FlightAware
08:14PM 33.4100 -112.1670 32° Northeast 168 193 3,200 -1,020 Descending FlightAware
08:15PM 33.4180 -112.1450 66° East 168 193 2,900 -840 Descending FlightAware
08:15PM 33.4240 -112.1260 69° East 149 171 2,500 -840 Descending FlightAware
08:16PM 33.4280 -112.1030 78° East 146 168 2,200 -720 Descending FlightAware
08:16PM 33.4290 -112.0760 87° East 148 170 1,800 -780 Descending FlightAware
08:17PM 33.4290 -112.0570 90° East 149 171 1,500 -900 Descending FlightAware
08:17PM 33.4290 -112.0390 90° East 152 175 1,200 -660 Descending FlightAware
08:17PM 33.4290 -112.0340 90° East 152 175 1,200  Level FlightAware
08:17PM 33.4290 -112.0130 90° East 100 115 -2,700 Descending FlightAware
08:18PM 33.4290 -112.0000 90° East 100 115  Level FlightAware